Time;durP1;ratioP1;P1;durP2;ratioP2;P2;SDS_P1;SDS_P2;PMS_P1;PMS_P2;Temp;Humidity;BMP_temperature;BMP_pressure;BME280_temperature;BME280_humidity;BME280_pressure;Samples;Min_cycle;Max_cycle;Signal;HPM_P1;HPM_P2
2022/09/16 00:00:50;;;;;;;0.75;0.60;;;;;;;;;;5052335;28;20299;-86
2022/09/16 00:03:18;;;;;;;1.40;0.52;;;;;;;;;;5052954;28;20288;-86
2022/09/16 00:05:47;;;;;;;2.47;1.33;;;;;;;;;;5052887;28;20228;-85
2022/09/16 00:08:15;;;;;;;0.80;0.80;;;;;;;;;;5052725;28;20292;-86
2022/09/16 00:10:43;;;;;;;0.70;0.70;;;;;;;;;;5052969;28;20201;-86
2022/09/16 00:13:11;;;;;;;1.83;1.55;;;;;;;;;;5052788;28;20205;-86
2022/09/16 00:15:43;;;;;;;2.10;0.73;;;;;;;;;;5053027;28;20201;-87
2022/09/16 00:18:13;;;;;;;1.02;0.77;;;;;;;;;;5053288;28;20186;-86
2022/09/16 00:20:45;;;;;;;0.60;0.60;;;;;;;;;;5052958;28;20237;-87
2022/09/16 00:23:12;;;;;;;0.95;0.70;;;;;;;;;;5052787;28;20189;-86
2022/09/16 00:25:40;;;;;;;0.77;0.68;;;;;;;;;;5052607;28;20701;-86
2022/09/16 00:28:08;;;;;;;1.08;0.82;;;;;;;;;;5052872;28;20308;-86
2022/09/16 00:30:35;;;;;;;0.70;0.70;;;;;;;;;;5053233;28;20288;-86
2022/09/16 00:33:03;;;;;;;4.22;1.33;;;;;;;;;;5055115;28;20296;-86
2022/09/16 00:35:32;;;;;;;0.82;0.80;;;;;;;;;;5056659;28;20200;-86
2022/09/16 00:37:59;;;;;;;0.70;0.70;;;;;;;;;;5056340;28;20285;-86
2022/09/16 00:40:27;;;;;;;0.82;0.82;;;;;;;;;;5056331;28;20317;-86
2022/09/16 00:42:54;;;;;;;1.13;1.00;;;;;;;;;;5056218;28;20256;-86
2022/09/16 00:45:26;;;;;;;2.20;0.93;;;;;;;;;;5055942;28;20218;-85
2022/09/16 00:47:56;;;;;;;0.80;0.80;;;;;;;;;;5056266;28;20585;-86
2022/09/16 00:50:28;;;;;;;1.02;0.93;;;;;;;;;;5056238;28;20204;-86
2022/09/16 00:52:58;;;;;;;2.25;1.05;;;;;;;;;;5056236;28;20212;-86
2022/09/16 00:55:28;;;;;;;1.80;0.77;;;;;;;;;;5056257;28;20300;-86
2022/09/16 00:57:59;;;;;;;2.47;1.23;;;;;;;;;;5056069;28;20727;-86
2022/09/16 01:00:28;;;;;;;2.50;1.20;;;;;;;;;;5055990;28;20197;-87
2022/09/16 01:02:55;;;;;;;2.58;1.60;;;;;;;;;;5056032;28;20197;-86
2022/09/16 01:05:25;;;;;;;1.20;1.10;;;;;;;;;;5055880;28;20447;-85
2022/09/16 01:07:56;;;;;;;0.90;0.88;;;;;;;;;;5056278;28;20201;-86
2022/09/16 01:10:26;;;;;;;1.13;0.80;;;;;;;;;;5056123;28;20240;-86
2022/09/16 01:12:56;;;;;;;1.85;1.10;;;;;;;;;;5055588;28;20264;-86
2022/09/16 01:15:26;;;;;;;1.38;1.27;;;;;;;;;;5055744;28;20617;-85
2022/09/16 01:18:07;;;;;;;3.17;1.20;;;;;;;;;;5055824;28;20288;-85
2022/09/16 01:21:06;;;;;;;1.02;0.90;;;;;;;;;;5055373;28;20205;-86
2022/09/16 01:24:03;;;;;;;2.05;1.08;;;;;;;;;;5055263;28;20194;-86
2022/09/16 01:27:28;;;;;;;1.05;0.95;;;;;;;;;;5055319;28;20217;-86
2022/09/16 01:30:18;;;;;;;1.23;1.13;;;;;;;;;;5042025;28;20221;-86
2022/09/16 01:33:00;;;;;;;1.02;0.90;;;;;;;;;;5055253;28;20720;-87
2022/09/16 01:35:39;;;;;;;1.27;0.90;;;;;;;;;;5055199;28;20190;-86
2022/09/16 01:38:15;;;;;;;1.55;0.85;;;;;;;;;;5055210;28;20205;-86
2022/09/16 01:40:52;;;;;;;1.27;1.02;;;;;;;;;;5055432;28;20201;-86
2022/09/16 01:43:24;;;;;;;1.33;1.23;;;;;;;;;;5054837;28;20235;-86
2022/09/16 01:45:56;;;;;;;1.25;1.15;;;;;;;;;;5054864;28;20682;-86
2022/09/16 01:48:32;;;;;;;1.40;1.30;;;;;;;;;;5054745;28;20229;-86
2022/09/16 01:51:02;;;;;;;1.00;1.00;;;;;;;;;;5054925;28;20221;-86
2022/09/16 01:53:35;;;;;;;8.20;1.48;;;;;;;;;;5054827;28;20197;-86
2022/09/16 01:56:08;;;;;;;1.90;1.23;;;;;;;;;;5045052;28;20221;-86
2022/09/16 01:58:41;;;;;;;1.90;1.17;;;;;;;;;;5034553;28;20321;-86
2022/09/16 02:01:14;;;;;;;1.52;1.20;;;;;;;;;;5034710;28;20761;-86
2022/09/16 02:03:46;;;;;;;1.23;1.00;;;;;;;;;;5035311;28;20281;-86
2022/09/16 02:06:18;;;;;;;1.17;1.13;;;;;;;;;;5034488;28;20602;-86
2022/09/16 02:08:49;;;;;;;1.30;1.20;;;;;;;;;;5034763;28;20207;-85
2022/09/16 02:11:18;;;;;;;2.67;1.52;;;;;;;;;;5034449;28;20228;-84
2022/09/16 02:13:49;;;;;;;1.33;1.23;;;;;;;;;;5033837;28;20285;-85
2022/09/16 02:16:20;;;;;;;0.90;0.90;;;;;;;;;;5034753;28;20288;-84
2022/09/16 02:18:53;;;;;;;0.82;0.80;;;;;;;;;;5033902;28;20285;-85
2022/09/16 02:21:23;;;;;;;1.20;1.10;;;;;;;;;;5034208;28;20613;-86
2022/09/16 02:23:53;;;;;;;2.05;1.40;;;;;;;;;;5035697;28;20667;-85
2022/09/16 02:26:29;;;;;;;1.23;1.13;;;;;;;;;;5048911;28;20727;-85
2022/09/16 02:28:58;;;;;;;1.58;1.38;;;;;;;;;;5056670;28;20212;-85
2022/09/16 02:31:33;;;;;;;1.65;1.00;;;;;;;;;;5054366;28;20312;-85
2022/09/16 02:34:09;;;;;;;1.05;1.00;;;;;;;;;;5054797;28;20665;-85
2022/09/16 02:36:39;;;;;;;2.58;0.98;;;;;;;;;;5054375;28;20209;-85
2022/09/16 02:39:09;;;;;;;1.67;1.10;;;;;;;;;;5053808;28;20256;-85
2022/09/16 02:41:37;;;;;;;1.48;1.38;;;;;;;;;;5054072;28;20300;-85
2022/09/16 02:44:05;;;;;;;1.02;0.95;;;;;;;;;;5054268;28;20209;-86
2022/09/16 02:46:40;;;;;;;1.40;1.30;;;;;;;;;;5053449;28;20229;-85
2022/09/16 02:49:13;;;;;;;0.93;0.93;;;;;;;;;;5054256;28;20859;-85
2022/09/16 02:51:50;;;;;;;0.88;0.88;;;;;;;;;;5053634;28;20218;-85
2022/09/16 02:54:22;;;;;;;0.85;0.85;;;;;;;;;;5053108;28;20204;-85
2022/09/16 02:56:49;;;;;;;1.20;1.17;;;;;;;;;;5053617;28;20267;-86
2022/09/16 02:59:17;;;;;;;1.30;1.20;;;;;;;;;;5053315;28;20200;-86
2022/09/16 03:01:46;;;;;;;1.00;1.00;;;;;;;;;;5053355;28;20317;-85
2022/09/16 03:04:18;;;;;;;2.15;1.10;;;;;;;;;;5053967;28;20696;-85
2022/09/16 03:06:46;;;;;;;1.90;1.50;;;;;;;;;;5053394;28;20221;-85
2022/09/16 03:09:15;;;;;;;1.20;1.10;;;;;;;;;;5053106;28;20209;-86
2022/09/16 03:12:11;;;;;;;1.00;0.90;;;;;;;;;;5053087;28;20332;-85
2022/09/16 03:14:55;;;;;;;1.13;1.10;;;;;;;;;;5052791;28;20194;-85
2022/09/16 03:17:41;;;;;;;0.80;0.80;;;;;;;;;;5053106;28;20202;-85
2022/09/16 03:20:17;;;;;;;3.15;1.30;;;;;;;;;;5053455;28;20284;-85
2022/09/16 03:22:51;;;;;;;1.70;1.60;;;;;;;;;;5053837;28;20593;-85
2022/09/16 03:25:34;;;;;;;1.60;1.42;;;;;;;;;;5053221;28;20689;-84
2022/09/16 03:28:06;;;;;;;1.73;1.63;;;;;;;;;;5053132;28;20208;-85
2022/09/16 03:30:38;;;;;;;1.33;1.33;;;;;;;;;;5053057;28;20204;-85
2022/09/16 03:33:09;;;;;;;1.90;1.55;;;;;;;;;;5053244;28;20211;-85
2022/09/16 03:35:43;;;;;;;1.65;1.55;;;;;;;;;;5052857;28;20220;-84
2022/09/16 03:38:12;;;;;;;1.70;1.60;;;;;;;;;;5052854;28;20587;-85
2022/09/16 03:40:39;;;;;;;5.72;1.75;;;;;;;;;;5053639;28;20193;-85
2022/09/16 03:43:14;;;;;;;2.17;1.75;;;;;;;;;;5053199;28;20588;-85
2022/09/16 03:45:43;;;;;;;1.50;1.40;;;;;;;;;;5052628;28;20571;-85
2022/09/16 03:48:12;;;;;;;1.20;1.20;;;;;;;;;;5053061;28;20201;-85
2022/09/16 03:50:41;;;;;;;2.15;1.55;;;;;;;;;;5053096;28;20308;-85
2022/09/16 03:53:09;;;;;;;1.42;1.33;;;;;;;;;;5052444;28;20278;-85
2022/09/16 03:55:36;;;;;;;1.35;1.20;;;;;;;;;;5052306;28;20209;-85
2022/09/16 03:58:04;;;;;;;1.40;1.30;;;;;;;;;;5052364;28;20208;-85
2022/09/16 04:00:31;;;;;;;2.33;1.85;;;;;;;;;;5052414;28;20207;-85
2022/09/16 04:03:00;;;;;;;2.03;1.27;;;;;;;;;;5052610;28;20259;-85
2022/09/16 04:05:27;;;;;;;1.50;1.40;;;;;;;;;;5052478;28;20607;-84
2022/09/16 04:07:56;;;;;;;2.95;2.28;;;;;;;;;;5056432;28;20304;-84
2022/09/16 04:10:24;;;;;;;2.10;1.90;;;;;;;;;;5056550;28;20399;-85
2022/09/16 04:12:51;;;;;;;1.58;1.48;;;;;;;;;;5056057;28;20308;-85
2022/09/16 04:15:18;;;;;;;1.85;1.75;;;;;;;;;;5056497;28;20583;-85
2022/09/16 04:17:49;;;;;;;1.50;1.40;;;;;;;;;;5055988;28;20229;-85
2022/09/16 04:20:17;;;;;;;2.20;2.03;;;;;;;;;;5056082;28;20328;-85
2022/09/16 04:22:45;;;;;;;1.92;1.48;;;;;;;;;;5056112;28;20227;-84
2022/09/16 04:25:14;;;;;;;1.70;1.60;;;;;;;;;;5055984;28;20578;-85
2022/09/16 04:27:41;;;;;;;3.20;2.08;;;;;;;;;;5055620;28;20308;-84
2022/09/16 04:30:11;;;;;;;1.50;1.40;;;;;;;;;;5055533;28;20223;-85
2022/09/16 04:32:39;;;;;;;1.30;1.27;;;;;;;;;;5055266;28;20732;-84
2022/09/16 04:35:07;;;;;;;1.70;1.60;;;;;;;;;;5056093;28;20233;-84
2022/09/16 04:37:35;;;;;;;2.67;2.05;;;;;;;;;;5055540;28;20197;-85
2022/09/16 04:40:03;;;;;;;4.25;3.25;;;;;;;;;;5055943;28;20647;-84
2022/09/16 04:42:32;;;;;;;3.05;2.20;;;;;;;;;;5055701;28;20621;-85
2022/09/16 04:44:59;;;;;;;2.92;2.42;;;;;;;;;;5055816;28;20580;-85
2022/09/16 04:47:28;;;;;;;2.53;2.10;;;;;;;;;;5055818;28;20311;-82
2022/09/16 04:49:55;;;;;;;1.90;1.80;;;;;;;;;;5055902;28;20201;-84
2022/09/16 04:52:23;;;;;;;2.22;1.60;;;;;;;;;;5055724;28;20304;-85
2022/09/16 04:54:50;;;;;;;2.58;1.73;;;;;;;;;;5056126;28;20289;-85
2022/09/16 04:57:18;;;;;;;4.30;1.70;;;;;;;;;;5055008;28;20284;-85
2022/09/16 04:59:47;;;;;;;2.85;2.00;;;;;;;;;;5055816;28;20209;-85
2022/09/16 05:02:14;;;;;;;2.25;1.30;;;;;;;;;;5055688;28;20233;-84
2022/09/16 05:04:42;;;;;;;3.15;1.92;;;;;;;;;;5055901;28;20292;-84
2022/09/16 05:07:09;;;;;;;2.67;2.00;;;;;;;;;;5055290;28;20316;-85
2022/09/16 05:09:37;;;;;;;1.50;1.40;;;;;;;;;;5055628;28;20225;-85
2022/09/16 05:12:04;;;;;;;3.05;2.38;;;;;;;;;;5055057;28;20222;-84
2022/09/16 05:14:32;;;;;;;1.58;1.48;;;;;;;;;;5055327;28;20213;-85
2022/09/16 05:17:01;;;;;;;1.23;1.20;;;;;;;;;;5054982;28;20343;-85
2022/09/16 05:19:28;;;;;;;1.60;1.50;;;;;;;;;;5054609;28;20232;-85
2022/09/16 05:21:56;;;;;;;2.05;1.27;;;;;;;;;;5054654;28;20308;-85
2022/09/16 05:24:23;;;;;;;1.30;1.20;;;;;;;;;;5054922;28;20293;-85
2022/09/16 05:26:51;;;;;;;1.00;1.00;;;;;;;;;;5053934;28;20297;-86
2022/09/16 05:29:18;;;;;;;1.13;1.13;;;;;;;;;;5054925;28;20695;-85
2022/09/16 05:31:47;;;;;;;1.38;1.25;;;;;;;;;;5054740;28;20244;-85
2022/09/16 05:34:18;;;;;;;1.45;1.35;;;;;;;;;;5055180;28;20204;-85
2022/09/16 05:36:46;;;;;;;4.03;1.67;;;;;;;;;;5055030;28;20200;-84
2022/09/16 05:39:16;;;;;;;1.55;1.30;;;;;;;;;;5054860;28;20197;-85
2022/09/16 05:41:44;;;;;;;2.72;1.38;;;;;;;;;;5054478;28;20218;-83
2022/09/16 05:44:11;;;;;;;2.15;1.77;;;;;;;;;;5054378;28;20198;-83
2022/09/16 05:46:40;;;;;;;2.05;1.55;;;;;;;;;;5053942;28;20294;-83
2022/09/16 05:49:08;;;;;;;1.30;1.20;;;;;;;;;;5053903;28;20218;-83
2022/09/16 05:51:38;;;;;;;1.00;1.00;;;;;;;;;;5053735;28;20225;-82
2022/09/16 05:54:05;;;;;;;1.20;1.20;;;;;;;;;;5053923;28;20785;-81
2022/09/16 05:56:33;;;;;;;0.95;0.95;;;;;;;;;;5053295;28;20588;-82
2022/09/16 05:59:01;;;;;;;0.80;0.80;;;;;;;;;;5053830;28;20284;-80
2022/09/16 06:01:32;;;;;;;1.13;1.10;;;;;;;;;;5053042;28;20615;-81
2022/09/16 06:04:02;;;;;;;2.28;1.90;;;;;;;;;;5049915;28;20213;-81
2022/09/16 06:06:32;;;;;;;2.90;1.38;;;;;;;;;;5053464;28;20251;-81
2022/09/16 06:09:04;;;;;;;1.73;1.42;;;;;;;;;;5053637;28;20228;-82
2022/09/16 06:11:32;;;;;;;2.53;1.60;;;;;;;;;;5053827;28;20218;-81
2022/09/16 06:14:01;;;;;;;1.42;1.33;;;;;;;;;;5053428;28;20244;-81
2022/09/16 06:16:31;;;;;;;2.70;1.00;;;;;;;;;;5052948;28;20198;-82
2022/09/16 06:19:00;;;;;;;1.20;1.10;;;;;;;;;;5053661;28;20198;-82
2022/09/16 06:21:29;;;;;;;1.50;1.40;;;;;;;;;;5053881;28;20228;-82
2022/09/16 06:23:57;;;;;;;2.75;1.50;;;;;;;;;;5053600;28;20284;-82
2022/09/16 06:26:27;;;;;;;1.40;1.30;;;;;;;;;;5053384;28;20677;-82
2022/09/16 06:28:55;;;;;;;1.20;1.10;;;;;;;;;;5053269;28;20249;-83
2022/09/16 06:31:25;;;;;;;1.00;1.00;;;;;;;;;;5052928;28;20697;-82
2022/09/16 06:33:53;;;;;;;1.25;1.25;;;;;;;;;;5053277;28;20235;-82
2022/09/16 06:36:22;;;;;;;1.20;1.10;;;;;;;;;;5052872;28;20201;-82
2022/09/16 06:38:51;;;;;;;1.30;1.20;;;;;;;;;;5053187;28;20206;-82
2022/09/16 06:41:20;;;;;;;1.80;1.13;;;;;;;;;;5052644;28;20236;-82
2022/09/16 06:43:50;;;;;;;1.00;1.00;;;;;;;;;;5052922;28;20206;-82
2022/09/16 06:46:22;;;;;;;2.20;1.40;;;;;;;;;;5053281;28;20186;-83
2022/09/16 06:48:52;;;;;;;1.00;1.00;;;;;;;;;;5052855;28;20229;-82
2022/09/16 06:51:21;;;;;;;1.40;1.30;;;;;;;;;;5053103;28;20264;-82
2022/09/16 06:53:50;;;;;;;1.52;1.42;;;;;;;;;;5052991;28;20206;-82
2022/09/16 06:56:19;;;;;;;2.10;1.30;;;;;;;;;;5052766;28;20213;-82
2022/09/16 06:58:51;;;;;;;2.30;1.15;;;;;;;;;;5052679;28;20293;-82
2022/09/16 07:01:21;;;;;;;3.60;1.23;;;;;;;;;;5052612;28;20288;-83
2022/09/16 07:03:52;;;;;;;1.38;1.27;;;;;;;;;;5064439;28;20205;-82
2022/09/16 07:06:21;;;;;;;3.33;1.70;;;;;;;;;;5073011;28;20602;-83
2022/09/16 07:08:49;;;;;;;2.72;1.40;;;;;;;;;;5072853;28;20604;-82
2022/09/16 07:11:19;;;;;;;3.85;1.45;;;;;;;;;;5072544;28;20217;-83
2022/09/16 07:13:50;;;;;;;1.83;1.48;;;;;;;;;;5073104;28;20207;-83
2022/09/16 07:16:19;;;;;;;2.17;1.20;;;;;;;;;;5072204;28;20744;-82
2022/09/16 07:18:48;;;;;;;1.15;1.10;;;;;;;;;;5072525;28;20693;-82
2022/09/16 07:21:18;;;;;;;1.27;1.23;;;;;;;;;;5072600;28;20762;-82
2022/09/16 07:23:47;;;;;;;1.75;0.90;;;;;;;;;;5072459;28;20208;-82
2022/09/16 07:26:18;;;;;;;1.17;1.02;;;;;;;;;;5060996;28;20212;-82
2022/09/16 07:28:47;;;;;;;0.98;0.95;;;;;;;;;;5052747;28;20222;-82
2022/09/16 07:31:18;;;;;;;1.63;0.80;;;;;;;;;;5052483;28;20221;-82
2022/09/16 07:33:47;;;;;;;1.67;1.48;;;;;;;;;;5053011;28;20579;-83
2022/09/16 07:36:19;;;;;;;1.75;1.30;;;;;;;;;;5052792;28;20202;-81
2022/09/16 07:38:47;;;;;;;2.58;1.30;;;;;;;;;;5052600;28;20223;-82
2022/09/16 07:41:16;;;;;;;1.10;1.00;;;;;;;;;;5051816;28;20224;-82
2022/09/16 07:43:44;;;;;;;2.50;1.58;;;;;;;;;;5053412;28;20686;-82
2022/09/16 07:46:16;;;;;;;2.97;2.75;;;;;;;;;;5053339;28;20202;-82
2022/09/16 07:48:44;;;;;;;3.10;1.60;;;;;;;;;;5053612;28;20724;-82
2022/09/16 07:51:14;;;;;;;2.63;1.60;;;;;;;;;;5052668;28;20225;-82
2022/09/16 07:53:42;;;;;;;5.22;2.33;;;;;;;;;;5052398;28;20563;-82
2022/09/16 07:56:12;;;;;;;1.77;1.50;;;;;;;;;;5052573;28;20208;-81
2022/09/16 07:58:40;;;;;;;2.05;1.60;;;;;;;;;;5032708;28;20199;-82
2022/09/16 08:01:08;;;;;;;3.15;1.60;;;;;;;;;;5032677;28;20714;-82
2022/09/16 08:03:39;;;;;;;3.25;2.05;;;;;;;;;;5052149;28;20205;-83
2022/09/16 08:06:09;;;;;;;1.77;1.30;;;;;;;;;;5072559;28;20201;-83
2022/09/16 08:08:37;;;;;;;1.65;1.55;;;;;;;;;;5071938;28;20276;-83
2022/09/16 08:11:05;;;;;;;2.83;1.80;;;;;;;;;;5072226;28;20316;-82
2022/09/16 08:13:34;;;;;;;5.75;1.30;;;;;;;;;;5072070;28;20201;-81
2022/09/16 08:16:04;;;;;;;1.92;1.30;;;;;;;;;;5072001;28;20229;-82
2022/09/16 08:18:32;;;;;;;2.33;1.65;;;;;;;;;;5071254;28;20223;-80
2022/09/16 08:21:06;;;;;;;1.17;1.10;;;;;;;;;;5071976;28;20312;-81
2022/09/16 08:23:34;;;;;;;1.40;1.30;;;;;;;;;;5071602;28;20664;-81
2022/09/16 08:26:01;;;;;;;2.55;2.25;;;;;;;;;;5061325;28;20201;-82
2022/09/16 08:28:30;;;;;;;1.80;1.65;;;;;;;;;;5051758;28;20202;-80
2022/09/16 08:31:00;;;;;;;1.70;1.60;;;;;;;;;;5051464;28;20236;-81
2022/09/16 08:33:27;;;;;;;1.30;1.30;;;;;;;;;;5050766;28;20670;-82
2022/09/16 08:36:07;;;;;;;3.53;1.92;;;;;;;;;;5051575;28;20665;-82
2022/09/16 08:38:35;;;;;;;1.77;1.60;;;;;;;;;;5051458;28;20201;-82
2022/09/16 08:41:15;;;;;;;1.95;1.50;;;;;;;;;;5051375;28;20228;-82
2022/09/16 08:43:46;;;;;;;1.60;1.48;;;;;;;;;;5051569;28;20216;-82
2022/09/16 08:46:19;;;;;;;1.98;1.50;;;;;;;;;;5051601;28;20205;-83
2022/09/16 08:48:53;;;;;;;3.63;1.20;;;;;;;;;;5053850;28;20194;-84
2022/09/16 08:51:23;;;;;;;1.60;1.45;;;;;;;;;;5055029;28;20229;-82
2022/09/16 08:53:57;;;;;;;4.05;1.60;;;;;;;;;;5056824;28;20638;-82
2022/09/16 08:56:28;;;;;;;1.42;1.33;;;;;;;;;;5058041;28;20662;-84
2022/09/16 08:58:59;;;;;;;3.38;1.30;;;;;;;;;;5058554;28;20264;-81
2022/09/16 09:01:32;;;;;;;2.40;1.65;;;;;;;;;;5058125;28;20244;-81
2022/09/16 09:04:00;;;;;;;2.17;1.50;;;;;;;;;;5058617;28;20313;-81
2022/09/16 09:06:45;;;;;;;2.33;1.85;;;;;;;;;;5058992;28;20274;-82
2022/09/16 09:09:27;;;;;;;1.48;1.38;;;;;;;;;;5058316;28;20205;-82
2022/09/16 09:12:02;;;;;;;1.92;1.83;;;;;;;;;;5057936;28;20222;-80
2022/09/16 09:14:44;;;;;;;1.30;1.20;;;;;;;;;;5058831;28;20201;-82
2022/09/16 09:17:18;;;;;;;1.80;1.70;;;;;;;;;;5059696;28;20201;-82
2022/09/16 09:20:00;;;;;;;2.35;1.63;;;;;;;;;;5059166;28;20198;-82
2022/09/16 09:22:54;;;;;;;2.15;2.03;;;;;;;;;;5058066;28;20225;-79
2022/09/16 09:25:29;;;;;;;2.53;2.33;;;;;;;;;;5057920;28;20577;-82
2022/09/16 09:28:12;;;;;;;2.63;1.60;;;;;;;;;;5057749;28;20208;-82
2022/09/16 09:30:43;;;;;;;1.25;1.23;;;;;;;;;;5057731;28;20227;-82
2022/09/16 09:33:25;;;;;;;1.30;1.20;;;;;;;;;;5057644;28;20300;-80
2022/09/16 09:36:17;;;;;;;1.73;1.50;;;;;;;;;;5059044;28;20219;-83
2022/09/16 09:39:03;;;;;;;1.40;1.30;;;;;;;;;;5058032;28;20212;-84
2022/09/16 09:41:34;;;;;;;1.50;1.20;;;;;;;;;;5056489;28;20223;-83
2022/09/16 09:44:33;;;;;;;1.25;1.15;;;;;;;;;;5059209;28;20273;-83
2022/09/16 09:47:05;;;;;;;1.05;1.00;;;;;;;;;;5057711;28;20297;-83
2022/09/16 09:49:36;;;;;;;0.98;0.93;;;;;;;;;;5058523;28;20704;-82
2022/09/16 09:52:21;;;;;;;1.95;1.10;;;;;;;;;;5057401;28;20246;-82
2022/09/16 09:54:52;;;;;;;1.95;1.00;;;;;;;;;;5056836;28;20292;-82
2022/09/16 09:57:27;;;;;;;1.42;1.00;;;;;;;;;;5055989;28;20202;-83
2022/09/16 10:00:01;;;;;;;1.02;0.90;;;;;;;;;;5056696;28;20205;-83
2022/09/16 10:02:28;;;;;;;1.00;1.00;;;;;;;;;;5056216;28;20233;-83
2022/09/16 10:04:56;;;;;;;0.80;0.77;;;;;;;;;;5055587;28;20293;-84
2022/09/16 10:07:27;;;;;;;0.88;0.70;;;;;;;;;;5055605;28;20209;-82
2022/09/16 10:09:59;;;;;;;1.38;0.50;;;;;;;;;;5056041;28;20312;-83
2022/09/16 10:12:29;;;;;;;0.88;0.88;;;;;;;;;;5055945;28;20226;-83
2022/09/16 10:14:57;;;;;;;1.27;0.95;;;;;;;;;;5056386;28;20557;-83
2022/09/16 10:17:25;;;;;;;0.82;0.82;;;;;;;;;;5055550;28;20296;-84
2022/09/16 10:19:55;;;;;;;1.05;0.68;;;;;;;;;;5056063;28;20212;-83
2022/09/16 10:22:26;;;;;;;1.23;0.95;;;;;;;;;;5056352;28;20308;-83
2022/09/16 10:24:57;;;;;;;1.02;0.93;;;;;;;;;;5056563;28;20212;-84
2022/09/16 10:27:28;;;;;;;1.33;1.08;;;;;;;;;;5056298;28;20208;-84
2022/09/16 10:30:12;;;;;;;2.47;1.20;;;;;;;;;;5056125;28;20198;-84
2022/09/16 10:32:50;;;;;;;1.08;0.77;;;;;;;;;;5056681;28;20244;-84
2022/09/16 10:35:24;;;;;;;0.70;0.60;;;;;;;;;;5056861;28;20292;-83
2022/09/16 10:37:55;;;;;;;1.10;0.85;;;;;;;;;;5056233;28;20204;-84
2022/09/16 10:40:25;;;;;;;0.47;0.47;;;;;;;;;;5055119;28;20212;-84
2022/09/16 10:42:56;;;;;;;2.13;0.80;;;;;;;;;;5054756;28;21038;-84
2022/09/16 10:45:27;;;;;;;0.52;0.50;;;;;;;;;;5054925;28;20209;-82
2022/09/16 10:47:58;;;;;;;0.52;0.52;;;;;;;;;;5054158;28;20285;-82
2022/09/16 10:50:26;;;;;;;5.15;0.90;;;;;;;;;;5055048;28;20229;-82
2022/09/16 10:52:55;;;;;;;1.05;0.60;;;;;;;;;;5054534;28;20222;-81
2022/09/16 10:55:29;;;;;;;1.75;0.60;;;;;;;;;;5054579;28;20209;-82
2022/09/16 10:58:09;;;;;;;0.60;0.60;;;;;;;;;;5054042;28;20200;-80
2022/09/16 11:00:46;;;;;;;0.70;0.70;;;;;;;;;;5053929;28;20209;-82
2022/09/16 11:04:13;;;;;;;2.20;0.70;;;;;;;;;;5054427;28;20207;-81
2022/09/16 11:06:52;;;;;;;2.05;0.60;;;;;;;;;;5054704;28;20228;-81
2022/09/16 11:09:29;;;;;;;0.65;0.43;;;;;;;;;;5054133;28;20561;-81
2022/09/16 11:12:32;;;;;;;1.10;0.80;;;;;;;;;;5054597;28;20700;-80
2022/09/16 11:15:09;;;;;;;1.35;0.77;;;;;;;;;;5054635;28;20188;-81
2022/09/16 11:17:50;;;;;;;0.80;0.80;;;;;;;;;;5053420;28;20205;-81
2022/09/16 11:21:06;;;;;;;0.57;0.57;;;;;;;;;;5052821;28;20212;-80
2022/09/16 11:24:04;;;;;;;1.05;0.88;;;;;;;;;;5029569;28;20682;-80
2022/09/16 11:26:39;;;;;;;1.02;0.73;;;;;;;;;;5053219;28;20205;-81
2022/09/16 11:29:34;;;;;;;2.03;0.63;;;;;;;;;;5053864;28;20549;-82
2022/09/16 11:32:14;;;;;;;0.60;0.60;;;;;;;;;;5053548;28;20229;-81
2022/09/16 11:35:16;;;;;;;0.52;0.52;;;;;;;;;;5054299;28;20580;-80
2022/09/16 11:37:49;;;;;;;3.17;0.80;;;;;;;;;;5053817;28;20223;-82
2022/09/16 11:40:31;;;;;;;0.75;0.70;;;;;;;;;;5052923;28;20575;-82
2022/09/16 11:43:26;;;;;;;0.40;0.40;;;;;;;;;;5052811;28;20652;-83
2022/09/16 11:46:01;;;;;;;1.77;0.70;;;;;;;;;;5035970;28;20260;-82
2022/09/16 11:48:47;;;;;;;0.73;0.45;;;;;;;;;;5038574;28;20678;-82
2022/09/16 11:51:42;;;;;;;0.90;0.52;;;;;;;;;;5036685;28;20607;-84
2022/09/16 11:54:25;;;;;;;0.32;0.32;;;;;;;;;;5034804;28;20194;-82
2022/09/16 11:56:55;;;;;;;0.28;0.28;;;;;;;;;;5051999;28;20202;-81
2022/09/16 11:59:26;;;;;;;0.47;0.47;;;;;;;;;;5034679;28;20209;-81
2022/09/16 12:02:01;;;;;;;1.65;0.70;;;;;;;;;;5034661;28;20222;-85
2022/09/16 12:04:31;;;;;;;0.90;0.88;;;;;;;;;;5050536;28;20227;-82
2022/09/16 12:07:04;;;;;;;1.05;0.60;;;;;;;;;;5053400;28;20208;-82
2022/09/16 12:09:39;;;;;;;0.50;0.50;;;;;;;;;;5053111;28;20194;-81
2022/09/16 12:12:13;;;;;;;1.08;0.77;;;;;;;;;;5052875;28;20620;-82
2022/09/16 12:14:43;;;;;;;2.30;0.65;;;;;;;;;;5053626;28;20765;-84
2022/09/16 12:17:19;;;;;;;0.65;0.65;;;;;;;;;;5051017;28;20217;-82
2022/09/16 12:19:52;;;;;;;2.35;0.80;;;;;;;;;;5045569;28;20204;-82
2022/09/16 12:22:24;;;;;;;0.95;0.55;;;;;;;;;;5052832;28;20217;-82
2022/09/16 12:24:58;;;;;;;0.68;0.60;;;;;;;;;;5053430;28;20194;-82
2022/09/16 12:27:40;;;;;;;1.63;0.77;;;;;;;;;;5053631;28;20266;-82
2022/09/16 12:30:17;;;;;;;0.80;0.80;;;;;;;;;;5057406;28;20288;-81
2022/09/16 12:32:55;;;;;;;0.88;0.52;;;;;;;;;;5057752;28;20697;-82
2022/09/16 12:35:27;;;;;;;2.45;0.80;;;;;;;;;;5057599;28;20205;-83
2022/09/16 12:37:56;;;;;;;0.52;0.52;;;;;;;;;;5057065;28;20204;-82
2022/09/16 12:40:27;;;;;;;0.40;0.40;;;;;;;;;;5057161;28;20210;-82
2022/09/16 12:43:29;;;;;;;1.08;0.60;;;;;;;;;;5058098;28;20308;-83
2022/09/16 12:46:27;;;;;;;1.02;0.70;;;;;;;;;;5058083;28;20215;-82
2022/09/16 12:49:23;;;;;;;0.60;0.60;;;;;;;;;;5057957;28;20208;-82
2022/09/16 12:52:21;;;;;;;1.13;0.75;;;;;;;;;;5056746;28;20232;-82
2022/09/16 12:55:32;;;;;;;0.80;0.80;;;;;;;;;;5057165;28;20733;-80
2022/09/16 12:58:19;;;;;;;1.23;0.70;;;;;;;;;;5056374;28;20190;-82
2022/09/16 13:00:57;;;;;;;2.08;0.88;;;;;;;;;;5056594;28;20212;-81
2022/09/16 13:03:27;;;;;;;0.85;0.85;;;;;;;;;;5057243;28;20212;-82
2022/09/16 13:05:57;;;;;;;1.50;0.63;;;;;;;;;;5055566;28;20205;-83
2022/09/16 13:08:28;;;;;;;1.27;0.52;;;;;;;;;;5057196;28;20595;-82
2022/09/16 13:10:58;;;;;;;2.33;0.90;;;;;;;;;;5056341;28;20222;-82
2022/09/16 13:13:33;;;;;;;0.95;0.63;;;;;;;;;;5057177;28;20244;-82
2022/09/16 13:16:03;;;;;;;1.05;0.60;;;;;;;;;;5056977;28;20681;-82
2022/09/16 13:18:43;;;;;;;2.05;0.75;;;;;;;;;;5056387;28;20201;-80
2022/09/16 13:21:23;;;;;;;0.95;0.75;;;;;;;;;;5056642;28;20233;-82
2022/09/16 13:23:59;;;;;;;0.60;0.60;;;;;;;;;;5057432;28;20189;-81
2022/09/16 13:26:26;;;;;;;1.38;0.68;;;;;;;;;;5057028;28;20197;-80
2022/09/16 13:28:56;;;;;;;1.80;0.63;;;;;;;;;;5056105;28;20204;-82
2022/09/16 13:31:30;;;;;;;0.65;0.65;;;;;;;;;;5056511;28;20268;-82
2022/09/16 13:34:14;;;;;;;2.40;0.80;;;;;;;;;;5056102;28;20206;-82
2022/09/16 13:36:43;;;;;;;1.38;0.63;;;;;;;;;;5056341;28;20734;-81
2022/09/16 13:39:13;;;;;;;2.83;0.93;;;;;;;;;;5056151;28;20359;-82
2022/09/16 13:41:43;;;;;;;2.30;0.70;;;;;;;;;;5056651;28;20218;-81
2022/09/16 13:44:39;;;;;;;1.33;0.90;;;;;;;;;;5057134;28;20672;-82
2022/09/16 13:47:28;;;;;;;0.65;0.65;;;;;;;;;;5057241;28;20207;-82
2022/09/16 13:49:59;;;;;;;2.45;0.90;;;;;;;;;;5055189;28;20579;-81
2022/09/16 13:52:31;;;;;;;1.13;1.00;;;;;;;;;;5035072;28;20229;-82
2022/09/16 13:55:01;;;;;;;1.55;0.98;;;;;;;;;;5037197;28;20202;-83
2022/09/16 13:57:47;;;;;;;1.08;0.57;;;;;;;;;;5056801;28;20661;-81
2022/09/16 14:00:19;;;;;;;1.08;0.75;;;;;;;;;;5056465;28;20206;-82
2022/09/16 14:03:19;;;;;;;0.80;0.70;;;;;;;;;;5056513;28;20226;-82
2022/09/16 14:06:20;;;;;;;1.85;1.05;;;;;;;;;;5056319;28;20205;-82
2022/09/16 14:08:57;;;;;;;2.15;0.80;;;;;;;;;;5042106;28;20208;-81
2022/09/16 14:11:36;;;;;;;1.83;0.80;;;;;;;;;;5060306;28;20590;-82
2022/09/16 14:14:09;;;;;;;0.80;0.40;;;;;;;;;;5060365;28;20231;-83
2022/09/16 14:16:41;;;;;;;0.70;0.70;;;;;;;;;;5059329;28;20666;-81
2022/09/16 14:19:18;;;;;;;0.93;0.70;;;;;;;;;;5058412;28;20564;-81
2022/09/16 14:21:46;;;;;;;0.75;0.68;;;;;;;;;;5056202;28;20251;-81
2022/09/16 14:24:20;;;;;;;0.65;0.60;;;;;;;;;;5055540;28;20204;-82
2022/09/16 14:26:52;;;;;;;0.88;0.77;;;;;;;;;;5056822;28;20201;-83
2022/09/16 14:29:19;;;;;;;0.63;0.63;;;;;;;;;;5056543;28;20634;-83
2022/09/16 14:31:47;;;;;;;1.02;0.85;;;;;;;;;;5055539;28;20226;-82
2022/09/16 14:34:25;;;;;;;1.20;0.60;;;;;;;;;;5055409;28;20316;-82
2022/09/16 14:36:52;;;;;;;0.52;0.50;;;;;;;;;;5055377;28;20197;-80
2022/09/16 14:39:23;;;;;;;0.98;0.60;;;;;;;;;;5056775;28;20202;-82
2022/09/16 14:41:54;;;;;;;0.50;0.50;;;;;;;;;;5055872;28;20864;-82
2022/09/16 14:44:27;;;;;;;0.52;0.50;;;;;;;;;;5056346;28;20299;-82
2022/09/16 14:46:57;;;;;;;0.88;0.80;;;;;;;;;;5055076;28;20198;-81
2022/09/16 14:49:25;;;;;;;1.27;0.75;;;;;;;;;;5055715;28;20212;-81
2022/09/16 14:51:57;;;;;;;0.75;0.60;;;;;;;;;;5053712;28;20285;-81
2022/09/16 14:54:28;;;;;;;0.50;0.50;;;;;;;;;;5054553;28;20221;-80
2022/09/16 14:56:57;;;;;;;0.40;0.40;;;;;;;;;;5054460;28;20296;-82
2022/09/16 14:59:28;;;;;;;0.50;0.50;;;;;;;;;;5054901;28;20201;-81
2022/09/16 15:01:59;;;;;;;1.98;0.63;;;;;;;;;;5054224;28;20237;-81
2022/09/16 15:04:31;;;;;;;1.67;0.68;;;;;;;;;;5055109;28;20349;-81
2022/09/16 15:07:05;;;;;;;1.73;0.80;;;;;;;;;;5055021;28;20666;-82
2022/09/16 15:09:43;;;;;;;0.73;0.60;;;;;;;;;;5054927;28;20209;-81
2022/09/16 15:12:21;;;;;;;4.82;0.70;;;;;;;;;;5055036;28;20232;-82
2022/09/16 15:14:49;;;;;;;0.60;0.60;;;;;;;;;;5054796;28;20276;-81
2022/09/16 15:17:19;;;;;;;1.23;0.60;;;;;;;;;;5054742;28;20665;-81
2022/09/16 15:19:52;;;;;;;0.70;0.70;;;;;;;;;;5053970;28;20198;-81